Time;durP1;ratioP1;P1;durP2;ratioP2;P2;SDS_P1;SDS_P2;PMS_P1;PMS_P2;Temp;Humidity;BMP_temperature;BMP_pressure;BME280_temperature;BME280_humidity;BME280_pressure;Samples;Min_cycle;Max_cycle;Signal;HPM_P1;HPM_P2
2022/12/08 00:01:25;;;;;;;27.35;16.15;;;2.70;99.90;;;;;;5016196;28;20048;-71
2022/12/08 00:03:54;;;;;;;27.60;17.00;;;2.70;99.90;;;;;;5022342;28;20037;-72
2022/12/08 00:09:33;;;;;;;32.25;17.88;;;2.60;99.90;;;;;;5004550;28;20144;-71
2022/12/08 00:12:15;;;;;;;28.55;16.48;;;2.60;99.90;;;;;;5018287;28;20136;-72
2022/12/08 00:14:45;;;;;;;33.13;18.02;;;2.50;99.90;;;;;;5024126;28;20049;-71
2022/12/08 00:17:14;;;;;;;32.70;18.08;;;2.50;99.90;;;;;;5029757;28;20049;-71
2022/12/08 00:19:43;;;;;;;34.40;17.38;;;2.50;99.90;;;;;;5017428;28;20424;-72
2022/12/08 00:22:14;;;;;;;33.40;17.67;;;2.60;99.90;;;;;;5024524;28;20076;-72
2022/12/08 00:24:44;;;;;;;38.10;20.63;;;2.50;99.90;;;;;;5008595;28;20120;-71
2022/12/08 00:27:14;;;;;;;34.75;18.52;;;2.50;99.90;;;;;;5015936;28;20144;-72
2022/12/08 00:29:45;;;;;;;33.55;18.80;;;2.50;99.90;;;;;;5028368;28;20144;-71
2022/12/08 00:32:12;;;;;;;32.38;19.02;;;2.50;99.90;;;;;;5008370;28;20334;-71
2022/12/08 00:34:40;;;;;;;33.22;18.52;;;2.50;99.90;;;;;;5025816;28;20134;-70
2022/12/08 00:37:07;;;;;;;34.60;19.15;;;2.40;99.90;;;;;;4998658;28;20058;-71
2022/12/08 00:39:34;;;;;;;35.85;18.38;;;2.50;99.90;;;;;;5023581;28;20042;-71
2022/12/08 00:42:10;;;;;;;33.90;18.45;;;2.50;99.90;;;;;;4992178;28;20038;-71
2022/12/08 00:44:42;;;;;;;33.47;18.40;;;2.50;99.90;;;;;;4994294;28;20158;-71
2022/12/08 00:47:10;;;;;;;32.60;18.60;;;2.50;99.90;;;;;;5010591;28;20146;-71
2022/12/08 00:49:37;;;;;;;32.33;18.65;;;2.50;99.90;;;;;;5011678;28;20400;-70
2022/12/08 00:52:06;;;;;;;31.77;18.67;;;2.50;99.90;;;;;;5018198;28;20584;-70
2022/12/08 00:54:33;;;;;;;32.25;18.05;;;2.50;99.90;;;;;;5013468;28;20103;-69
2022/12/08 00:57:00;;;;;;;34.75;18.70;;;2.50;99.90;;;;;;5010926;28;20050;-70
2022/12/08 00:59:28;;;;;;;32.10;18.80;;;2.50;99.90;;;;;;5011544;28;20050;-72
2022/12/08 01:01:55;;;;;;;30.70;18.38;;;2.50;99.90;;;;;;5010653;28;20081;-72
2022/12/08 01:04:23;;;;;;;35.55;19.05;;;2.50;99.90;;;;;;5018866;28;20046;-72
2022/12/08 01:06:51;;;;;;;34.58;19.17;;;2.50;99.90;;;;;;5012330;28;20160;-71
2022/12/08 01:09:19;;;;;;;32.30;17.45;;;2.50;99.90;;;;;;4997050;28;20524;-69
2022/12/08 01:11:46;;;;;;;31.48;17.98;;;2.40;99.90;;;;;;5014981;28;20041;-71
2022/12/08 01:14:14;;;;;;;35.72;18.83;;;2.40;99.90;;;;;;5021401;28;20046;-70
2022/12/08 01:16:42;;;;;;;33.20;17.92;;;2.30;99.90;;;;;;5019006;28;20475;-72
2022/12/08 01:19:11;;;;;;;32.08;18.70;;;2.20;99.90;;;;;;5019843;28;20179;-71
2022/12/08 01:21:40;;;;;;;32.97;19.60;;;2.20;99.90;;;;;;5027888;28;20571;-71
2022/12/08 01:24:11;;;;;;;34.08;19.15;;;2.10;99.90;;;;;;5013003;28;20126;-71
2022/12/08 01:26:38;;;;;;;33.70;18.87;;;2.10;99.90;;;;;;5016827;28;20046;-71
2022/12/08 01:29:06;;;;;;;32.38;18.23;;;2.00;99.90;;;;;;5003416;28;20069;-72
2022/12/08 01:31:33;;;;;;;35.65;18.27;;;2.00;99.90;;;;;;5018630;28;20484;-71
2022/12/08 01:34:01;;;;;;;33.05;18.55;;;1.90;99.90;;;;;;5013350;28;20060;-71
2022/12/08 01:36:31;;;;;;;36.67;18.98;;;1.90;99.90;;;;;;5018528;28;20053;-72
2022/12/08 01:39:00;;;;;;;37.83;20.33;;;1.90;99.90;;;;;;5025154;28;20050;-71
2022/12/08 01:41:30;;;;;;;33.40;20.27;;;1.90;99.90;;;;;;5014894;28;20064;-70
2022/12/08 01:44:03;;;;;;;33.63;19.73;;;1.90;99.90;;;;;;5024419;28;20487;-71
2022/12/08 01:46:32;;;;;;;36.80;20.85;;;1.80;99.90;;;;;;5022506;28;20034;-70
2022/12/08 01:49:25;;;;;;;37.38;19.65;;;1.80;99.90;;;;;;5031523;28;20041;-69
2022/12/08 01:52:12;;;;;;;34.33;18.85;;;1.80;99.90;;;;;;5017923;28;20357;-72
2022/12/08 01:54:46;;;;;;;34.15;20.05;;;1.80;99.90;;;;;;5028692;28;20049;-71
2022/12/08 01:57:19;;;;;;;35.55;19.80;;;1.80;99.90;;;;;;5021088;28;20227;-71
2022/12/08 01:59:52;;;;;;;34.90;19.20;;;1.70;99.90;;;;;;5020810;28;20476;-72
2022/12/08 02:02:19;;;;;;;34.92;20.17;;;1.70;99.90;;;;;;5022757;28;20091;-72
2022/12/08 02:04:47;;;;;;;34.75;20.00;;;1.70;99.90;;;;;;5028918;28;20042;-71
2022/12/08 02:07:16;;;;;;;37.85;19.90;;;1.60;99.90;;;;;;5010535;28;20053;-71
2022/12/08 02:09:45;;;;;;;35.30;18.67;;;1.60;99.90;;;;;;5026816;28;20040;-71
2022/12/08 02:12:12;;;;;;;37.67;20.75;;;1.60;99.90;;;;;;5018687;28;20041;-71
2022/12/08 02:14:40;;;;;;;33.67;19.75;;;1.60;99.90;;;;;;5031194;28;20467;-72
2022/12/08 02:17:47;;;;;;;34.08;18.77;;;1.60;99.90;;;;;;5033133;28;20042;-71
2022/12/08 02:20:40;;;;;;;40.10;19.83;;;1.50;99.90;;;;;;5013598;28;20117;-70
2022/12/08 02:23:32;;;;;;;35.75;19.30;;;1.50;99.90;;;;;;5019782;28;20038;-71
2022/12/08 02:26:12;;;;;;;39.72;18.88;;;1.40;99.90;;;;;;5026125;28;20065;-71
2022/12/08 02:29:14;;;;;;;35.63;19.40;;;1.40;99.90;;;;;;4998723;28;20049;-71
2022/12/08 02:31:44;;;;;;;32.37;18.03;;;1.40;99.90;;;;;;5029103;28;20038;-70
2022/12/08 02:34:23;;;;;;;37.03;18.52;;;1.40;99.90;;;;;;5030631;28;20041;-71
2022/12/08 02:37:15;;;;;;;34.45;19.42;;;1.30;99.90;;;;;;5020416;28;20437;-71
2022/12/08 02:39:58;;;;;;;31.73;18.75;;;1.40;99.90;;;;;;5012540;28;20509;-70
2022/12/08 02:42:36;;;;;;;32.95;18.52;;;1.30;99.90;;;;;;5003623;28;20050;-70
2022/12/08 02:45:18;;;;;;;33.17;17.67;;;1.30;99.90;;;;;;5021254;28;20336;-70
2022/12/08 02:47:46;;;;;;;34.17;17.95;;;1.20;99.90;;;;;;5025935;28;20045;-70
2022/12/08 02:50:14;;;;;;;34.38;20.15;;;1.20;99.90;;;;;;5030449;28;20084;-72
2022/12/08 02:52:46;;;;;;;35.25;18.27;;;1.20;99.90;;;;;;5031018;28;20111;-70
2022/12/08 02:55:26;;;;;;;31.65;18.02;;;1.20;99.90;;;;;;5022547;28;20050;-71
2022/12/08 02:58:11;;;;;;;32.72;17.92;;;1.20;99.90;;;;;;5030535;28;20054;-70
2022/12/08 03:01:17;;;;;;;33.20;18.10;;;1.20;99.90;;;;;;5029590;28;20464;-70
2022/12/08 03:04:08;;;;;;;31.00;16.63;;;1.10;99.90;;;;;;5017475;28;20048;-71
2022/12/08 03:06:54;;;;;;;29.35;16.77;;;1.10;99.90;;;;;;5022028;28;20030;-71
2022/12/08 03:09:28;;;;;;;33.13;18.27;;;1.10;99.90;;;;;;5018623;28;20427;-71
2022/12/08 03:12:02;;;;;;;31.27;17.83;;;1.00;99.90;;;;;;5012795;28;20496;-70
2022/12/08 03:14:32;;;;;;;33.40;17.33;;;1.10;99.90;;;;;;5028610;28;20056;-71
2022/12/08 03:17:00;;;;;;;31.65;17.48;;;1.20;99.90;;;;;;5028929;28;20652;-71
2022/12/08 03:19:33;;;;;;;29.95;17.13;;;1.30;99.90;;;;;;5024629;28;20045;-70
2022/12/08 03:22:03;;;;;;;31.42;16.25;;;1.40;99.90;;;;;;5030357;28;20049;-70
2022/12/08 03:24:40;;;;;;;29.33;16.13;;;1.50;99.90;;;;;;5030437;28;20049;-70
2022/12/08 03:27:11;;;;;;;27.33;15.73;;;1.60;99.90;;;;;;5028983;28;20038;-71
2022/12/08 03:29:38;;;;;;;25.42;15.43;;;1.70;99.90;;;;;;5031013;28;20095;-70
2022/12/08 03:32:32;;;;;;;25.85;14.48;;;1.80;99.90;;;;;;5029155;28;20504;-71
2022/12/08 03:35:03;;;;;;;28.60;15.52;;;1.90;99.90;;;;;;5029506;28;20064;-71
2022/12/08 03:37:33;;;;;;;25.45;14.27;;;1.90;99.90;;;;;;5011851;28;20504;-70
2022/12/08 03:40:00;;;;;;;25.48;14.65;;;1.90;99.90;;;;;;5013513;28;20504;-71
2022/12/08 03:42:28;;;;;;;25.95;14.73;;;2.00;99.90;;;;;;5020425;28;20426;-70
2022/12/08 03:44:56;;;;;;;27.35;14.73;;;1.90;99.90;;;;;;5008204;28;20065;-72
2022/12/08 03:47:23;;;;;;;27.58;14.18;;;2.00;99.90;;;;;;5008995;28;20493;-70
2022/12/08 03:49:50;;;;;;;24.77;15.07;;;2.00;99.90;;;;;;5028286;28;20104;-72
2022/12/08 03:52:17;;;;;;;26.77;14.18;;;2.00;99.90;;;;;;5027894;28;20051;-71
2022/12/08 03:54:45;;;;;;;25.58;14.40;;;2.00;99.90;;;;;;4995104;28;20552;-70
2022/12/08 03:57:12;;;;;;;27.30;14.75;;;2.00;99.90;;;;;;5006343;28;20041;-74
2022/12/08 03:59:40;;;;;;;24.13;14.38;;;2.00;99.90;;;;;;4995159;28;20061;-70
2022/12/08 04:02:07;;;;;;;22.98;13.80;;;2.00;99.90;;;;;;5027037;28;20167;-71
2022/12/08 04:04:34;;;;;;;30.48;14.63;;;2.00;99.90;;;;;;5012839;28;20049;-70
2022/12/08 04:07:02;;;;;;;26.85;15.52;;;1.90;99.90;;;;;;5020034;28;20041;-72
2022/12/08 04:09:29;;;;;;;29.83;15.43;;;1.90;99.90;;;;;;5028374;28;20095;-70
2022/12/08 04:11:56;;;;;;;26.80;14.98;;;1.90;99.90;;;;;;5029119;28;20063;-70
2022/12/08 04:14:24;;;;;;;27.65;15.43;;;1.80;99.90;;;;;;5018602;28;20421;-70
2022/12/08 04:16:51;;;;;;;28.08;14.63;;;1.80;99.90;;;;;;5030029;28;20452;-72
2022/12/08 04:19:18;;;;;;;26.67;14.30;;;1.80;99.90;;;;;;5025765;28;20041;-71
2022/12/08 04:21:45;;;;;;;29.30;15.15;;;1.80;99.90;;;;;;5026637;28;20052;-72
2022/12/08 04:24:13;;;;;;;29.13;14.85;;;1.80;99.90;;;;;;5010638;28;20545;-72
2022/12/08 04:26:40;;;;;;;28.90;14.90;;;1.80;99.90;;;;;;5024837;28;20049;-71
2022/12/08 04:29:07;;;;;;;30.38;16.10;;;1.80;99.90;;;;;;4998609;28;20452;-71
2022/12/08 04:31:35;;;;;;;28.58;15.80;;;1.80;99.90;;;;;;5029522;28;20129;-72
2022/12/08 04:34:02;;;;;;;29.52;15.77;;;1.70;99.90;;;;;;5024778;28;20077;-71
2022/12/08 04:36:29;;;;;;;32.83;15.60;;;1.70;99.90;;;;;;5009735;28;20049;-74
2022/12/08 04:38:57;;;;;;;29.15;15.95;;;1.60;99.90;;;;;;5020995;28;20053;-71
2022/12/08 04:41:24;;;;;;;31.90;16.20;;;1.60;99.90;;;;;;5021726;28;20567;-71
2022/12/08 04:43:51;;;;;;;32.30;16.88;;;1.50;99.90;;;;;;5026556;28;20076;-72
2022/12/08 04:46:18;;;;;;;27.25;15.90;;;1.50;99.90;;;;;;5023673;28;20502;-71
2022/12/08 04:48:46;;;;;;;28.70;16.23;;;1.50;99.90;;;;;;5014266;28;20042;-72
2022/12/08 04:51:16;;;;;;;29.13;16.23;;;1.50;99.90;;;;;;5028670;28;20037;-71
2022/12/08 04:53:44;;;;;;;27.25;16.08;;;1.50;99.90;;;;;;5032885;28;20049;-71
2022/12/08 04:56:15;;;;;;;32.28;16.05;;;1.50;99.90;;;;;;5033982;28;20053;-71
2022/12/08 04:58:42;;;;;;;29.40;17.27;;;1.60;99.90;;;;;;5029852;28;20075;-72
2022/12/08 05:01:10;;;;;;;28.73;16.48;;;1.60;99.90;;;;;;5031113;28;20136;-72
2022/12/08 05:03:37;;;;;;;27.77;16.17;;;1.60;99.90;;;;;;5031868;28;20151;-72
2022/12/08 05:06:05;;;;;;;31.25;16.25;;;1.70;99.90;;;;;;5025572;28;20050;-70
2022/12/08 05:08:33;;;;;;;30.60;16.33;;;1.70;99.90;;;;;;5025803;28;20052;-71
2022/12/08 05:11:05;;;;;;;30.60;16.15;;;1.70;99.90;;;;;;5032260;28;20041;-70
2022/12/08 05:13:32;;;;;;;31.40;16.60;;;1.70;99.90;;;;;;5033207;28;20132;-69
2022/12/08 05:16:05;;;;;;;33.08;16.80;;;1.70;99.90;;;;;;4991578;28;20143;-70
2022/12/08 05:18:33;;;;;;;31.15;16.08;;;1.70;99.90;;;;;;5021816;28;20132;-70
2022/12/08 05:21:00;;;;;;;28.98;15.63;;;1.70;99.90;;;;;;5021972;28;20060;-70
2022/12/08 05:23:28;;;;;;;30.15;16.08;;;1.60;99.90;;;;;;5018839;28;20040;-70
2022/12/08 05:25:55;;;;;;;31.75;16.48;;;1.70;99.90;;;;;;5015707;28;20049;-70
2022/12/08 05:28:23;;;;;;;33.22;17.15;;;1.60;99.90;;;;;;5014886;28;20133;-71
2022/12/08 05:31:09;;;;;;;31.42;16.52;;;1.70;99.90;;;;;;5029981;28;20037;-71
2022/12/08 05:33:37;;;;;;;30.17;16.02;;;1.70;99.90;;;;;;5027980;28;20104;-71
2022/12/08 05:36:04;;;;;;;29.75;16.42;;;1.70;99.90;;;;;;5024580;28;20034;-72
2022/12/08 05:38:32;;;;;;;31.20;15.90;;;1.70;99.90;;;;;;5017786;28;20103;-71
2022/12/08 05:40:59;;;;;;;32.47;16.60;;;1.70;99.90;;;;;;5012775;28;20323;-71
2022/12/08 05:43:26;;;;;;;32.80;18.05;;;1.70;99.90;;;;;;5017742;28;20041;-71
2022/12/08 05:45:54;;;;;;;33.08;17.48;;;1.70;99.90;;;;;;5024058;28;20041;-72
2022/12/08 05:48:21;;;;;;;33.88;16.10;;;1.70;99.90;;;;;;5025517;28;20159;-71
2022/12/08 05:50:49;;;;;;;35.85;18.25;;;1.70;99.90;;;;;;5026649;28;20514;-71
2022/12/08 05:53:18;;;;;;;35.05;17.55;;;1.70;99.90;;;;;;5026804;28;20464;-72
2022/12/08 05:55:46;;;;;;;31.08;15.95;;;1.70;99.90;;;;;;5022285;28;20061;-72
2022/12/08 05:58:16;;;;;;;33.05;17.58;;;1.70;99.90;;;;;;5018207;28;20441;-71
2022/12/08 06:00:45;;;;;;;35.53;17.85;;;1.70;99.90;;;;;;5012283;28;20065;-70
2022/12/08 06:03:14;;;;;;;35.70;16.33;;;1.70;99.90;;;;;;5026238;28;20546;-73
2022/12/08 06:05:43;;;;;;;33.60;17.90;;;1.70;99.90;;;;;;5023811;28;20037;-74
2022/12/08 06:08:11;;;;;;;32.45;17.25;;;1.70;99.90;;;;;;5010962;28;20046;-74
2022/12/08 06:10:40;;;;;;;33.08;16.73;;;1.80;99.90;;;;;;5009893;28;20237;-73
2022/12/08 06:13:08;;;;;;;32.92;16.92;;;1.70;99.90;;;;;;5001947;28;20060;-73
2022/12/08 06:15:36;;;;;;;33.33;15.95;;;1.80;99.90;;;;;;5030077;28;20053;-73
2022/12/08 06:18:04;;;;;;;31.27;16.25;;;1.70;99.90;;;;;;5024814;28;20508;-72
2022/12/08 06:20:31;;;;;;;33.25;16.88;;;1.70;99.90;;;;;;5019917;28;20061;-73
2022/12/08 06:22:59;;;;;;;33.20;18.20;;;1.70;99.90;;;;;;5016719;28;20034;-73
2022/12/08 06:25:26;;;;;;;34.95;17.95;;;1.70;99.90;;;;;;5017149;28;20141;-73
2022/12/08 06:27:53;;;;;;;32.17;16.55;;;1.80;99.90;;;;;;5020345;28;20457;-72
2022/12/08 06:30:21;;;;;;;36.22;17.17;;;1.80;99.90;;;;;;5020950;28;20045;-74
2022/12/08 06:32:48;;;;;;;32.70;17.10;;;1.80;99.90;;;;;;5023612;28;20049;-74
2022/12/08 06:35:15;;;;;;;31.85;16.73;;;1.80;99.90;;;;;;5001563;28;20475;-73
2022/12/08 06:37:43;;;;;;;31.38;16.40;;;1.80;99.90;;;;;;5023104;28;20083;-72
2022/12/08 06:40:10;;;;;;;30.58;17.20;;;1.80;99.90;;;;;;5019643;28;20038;-73
2022/12/08 06:42:45;;;;;;;33.17;16.50;;;1.80;99.90;;;;;;5008711;28;20484;-73
2022/12/08 06:45:17;;;;;;;34.65;17.45;;;1.80;99.90;;;;;;5013069;28;20033;-74
2022/12/08 06:47:44;;;;;;;31.45;17.02;;;1.70;99.90;;;;;;5012808;28;20125;-72
2022/12/08 06:50:13;;;;;;;26.95;15.18;;;1.70;99.90;;;;;;5012327;28;20052;-73
2022/12/08 06:52:41;;;;;;;32.80;16.70;;;1.70;99.90;;;;;;5020249;28;20052;-75
2022/12/08 06:55:24;;;;;;;33.30;16.63;;;1.70;99.90;;;;;;5014736;28;20103;-74
2022/12/08 06:58:12;;;;;;;29.48;16.13;;;1.70;99.90;;;;;;5029047;28;20137;-72
2022/12/08 07:00:40;;;;;;;32.60;17.58;;;1.80;99.90;;;;;;5017308;28;20049;-73
2022/12/08 07:03:09;;;;;;;32.88;16.15;;;1.80;99.90;;;;;;5001426;28;20041;-74
2022/12/08 07:05:37;;;;;;;31.98;16.17;;;1.70;99.90;;;;;;5012650;28;20516;-76
2022/12/08 07:08:07;;;;;;;35.05;18.42;;;1.70;99.90;;;;;;5015829;28;20526;-74
2022/12/08 07:10:34;;;;;;;32.08;17.83;;;1.80;99.90;;;;;;5013943;28;20064;-73
2022/12/08 07:13:05;;;;;;;37.50;17.80;;;1.80;99.90;;;;;;5011440;28;20133;-73
2022/12/08 07:15:39;;;;;;;39.20;18.38;;;1.80;99.90;;;;;;5024905;28;20456;-73
2022/12/08 07:18:07;;;;;;;35.83;18.60;;;1.80;99.90;;;;;;5018952;28;20483;-72
2022/12/08 07:20:34;;;;;;;31.65;16.33;;;1.80;99.90;;;;;;5013254;28;20464;-73
2022/12/08 07:23:01;;;;;;;34.35;17.88;;;1.80;99.90;;;;;;5016060;28;20061;-73
2022/12/08 07:25:29;;;;;;;29.85;15.43;;;1.80;99.90;;;;;;4998553;28;20056;-73
2022/12/08 07:27:56;;;;;;;32.45;16.70;;;1.80;99.90;;;;;;5014426;28;20500;-73
2022/12/08 07:30:23;;;;;;;32.22;15.43;;;1.80;99.90;;;;;;5010826;28;20038;-72
2022/12/08 07:32:51;;;;;;;39.58;19.58;;;1.90;99.90;;;;;;5006795;28;20057;-73
2022/12/08 07:35:19;;;;;;;37.67;19.88;;;1.90;99.90;;;;;;5016397;28;20049;-72
2022/12/08 07:37:48;;;;;;;30.58;16.73;;;1.90;99.90;;;;;;5018085;28;20034;-73
2022/12/08 07:40:16;;;;;;;35.03;15.82;;;1.90;99.90;;;;;;5013772;28;20125;-73
2022/12/08 07:42:44;;;;;;;33.70;16.70;;;1.90;99.90;;;;;;5016902;28;20041;-72
2022/12/08 07:45:12;;;;;;;30.05;15.93;;;1.90;99.90;;;;;;5021442;28;20049;-73
2022/12/08 07:47:40;;;;;;;34.95;17.05;;;1.90;99.90;;;;;;5015685;28;20129;-73
2022/12/08 07:50:11;;;;;;;29.88;15.30;;;1.90;99.90;;;;;;5001600;28;20057;-72
2022/12/08 07:52:38;;;;;;;32.53;16.97;;;1.90;99.90;;;;;;5005044;28;20319;-72
2022/12/08 07:55:06;;;;;;;37.90;17.35;;;1.90;99.90;;;;;;5020681;28;20371;-72
2022/12/08 07:57:34;;;;;;;29.83;15.80;;;1.90;99.90;;;;;;5018235;28;20041;-76
2022/12/08 08:00:04;;;;;;;32.30;16.38;;;1.90;99.90;;;;;;5025795;28;20054;-72
2022/12/08 08:02:37;;;;;;;31.23;15.63;;;2.00;99.90;;;;;;5019863;28;20063;-73
2022/12/08 08:05:06;;;;;;;31.95;15.27;;;2.00;99.90;;;;;;5016807;28;20064;-73
2022/12/08 08:07:34;;;;;;;31.38;15.93;;;2.00;99.90;;;;;;5028823;28;20037;-73
2022/12/08 08:10:01;;;;;;;28.90;14.90;;;2.00;99.90;;;;;;5027687;28;20046;-72
2022/12/08 08:12:30;;;;;;;32.40;16.58;;;2.00;99.90;;;;;;5011632;28;20356;-72
2022/12/08 08:15:00;;;;;;;29.83;15.55;;;2.00;99.90;;;;;;5011245;28;20550;-73
2022/12/08 08:17:28;;;;;;;28.48;15.13;;;2.10;99.90;;;;;;5011943;28;20638;-73
2022/12/08 08:19:56;;;;;;;30.30;16.05;;;2.10;99.90;;;;;;5010336;28;20065;-73
2022/12/08 08:22:25;;;;;;;32.60;15.82;;;2.10;99.90;;;;;;5016309;28;20069;-73
2022/12/08 08:24:53;;;;;;;29.80;15.70;;;2.10;99.90;;;;;;5025223;28;20041;-73
2022/12/08 08:27:21;;;;;;;31.35;16.00;;;2.10;99.90;;;;;;5008913;28;20046;-72
2022/12/08 08:29:49;;;;;;;28.08;14.63;;;2.10;99.90;;;;;;4993180;28;20034;-75
2022/12/08 08:32:17;;;;;;;30.13;15.93;;;2.20;99.90;;;;;;5028382;28;20404;-73
2022/12/08 08:34:45;;;;;;;27.17;14.70;;;2.10;99.90;;;;;;5029234;28;20499;-72
2022/12/08 08:37:12;;;;;;;32.60;14.98;;;2.20;99.90;;;;;;5013505;28;20061;-71
2022/12/08 08:39:41;;;;;;;30.02;15.95;;;2.20;99.90;;;;;;5028215;28;20100;-72
2022/12/08 08:42:09;;;;;;;40.15;20.05;;;2.20;99.90;;;;;;5021701;28;20056;-72
2022/12/08 08:44:37;;;;;;;29.20;15.63;;;2.20;99.90;;;;;;5025542;28;20433;-72
2022/12/08 08:47:05;;;;;;;29.23;15.77;;;2.30;99.90;;;;;;5018293;28;20068;-72
2022/12/08 08:49:33;;;;;;;29.70;15.93;;;2.30;99.90;;;;;;5025380;28;20044;-72
2022/12/08 08:52:01;;;;;;;27.55;15.38;;;2.30;99.90;;;;;;5020696;28;20084;-72
2022/12/08 08:54:30;;;;;;;30.23;15.70;;;2.30;99.90;;;;;;4999875;28;20446;-73
2022/12/08 08:56:59;;;;;;;31.27;15.13;;;2.40;99.90;;;;;;5021743;28;20045;-72
2022/12/08 08:59:27;;;;;;;31.25;15.98;;;2.40;99.90;;;;;;5026257;28;20038;-73
2022/12/08 09:01:54;;;;;;;30.42;16.55;;;2.30;99.90;;;;;;5019317;28;20046;-73
2022/12/08 09:04:22;;;;;;;30.73;16.73;;;2.40;99.90;;;;;;5027542;28;20068;-73
2022/12/08 09:06:49;;;;;;;27.27;14.48;;;2.50;99.90;;;;;;5015530;28;20069;-75
2022/12/08 09:09:17;;;;;;;34.55;15.00;;;2.50;99.90;;;;;;5017908;28;20038;-73
2022/12/08 09:11:44;;;;;;;29.00;15.40;;;2.40;99.90;;;;;;5010959;28;20485;-73
2022/12/08 09:14:14;;;;;;;27.95;15.32;;;2.50;99.90;;;;;;5021532;28;20049;-72
2022/12/08 09:16:41;;;;;;;29.85;15.25;;;2.50;99.90;;;;;;4993080;28;20046;-72
2022/12/08 09:19:09;;;;;;;26.40;14.90;;;2.60;99.90;;;;;;5015292;28;20350;-73
2022/12/08 09:21:38;;;;;;;27.58;15.57;;;2.60;99.90;;;;;;5016744;28;20068;-73
2022/12/08 09:24:14;;;;;;;27.42;15.45;;;2.70;99.90;;;;;;5010625;28;20144;-74
2022/12/08 09:26:43;;;;;;;35.95;15.73;;;2.70;99.90;;;;;;5027511;28;20053;-73
2022/12/08 09:29:13;;;;;;;28.83;15.43;;;2.80;99.90;;;;;;5018346;28;20034;-73
2022/12/08 09:31:41;;;;;;;28.25;14.60;;;2.80;99.90;;;;;;5004076;28;20046;-74
2022/12/08 09:34:11;;;;;;;26.45;14.40;;;2.70;99.90;;;;;;5022230;28;20168;-73
2022/12/08 09:36:39;;;;;;;27.02;15.10;;;2.80;99.90;;;;;;5011104;28;20077;-73
2022/12/08 09:39:06;;;;;;;28.30;15.20;;;2.80;99.90;;;;;;5021125;28;20507;-72
2022/12/08 09:41:48;;;;;;;27.40;13.68;;;2.90;99.90;;;;;;5000731;28;20054;-73
2022/12/08 09:44:47;;;;;;;26.13;13.85;;;2.90;99.90;;;;;;5019482;28;20647;-73
2022/12/08 09:47:26;;;;;;;26.40;13.35;;;2.80;99.90;;;;;;5032373;28;20046;-73
2022/12/08 09:50:20;;;;;;;26.77;14.25;;;2.90;99.90;;;;;;5008854;28;20033;-73
2022/12/08 09:53:03;;;;;;;25.88;13.45;;;3.00;99.90;;;;;;5013721;28;20061;-73
2022/12/08 09:55:52;;;;;;;28.80;14.95;;;2.90;99.90;;;;;;5025010;28;20107;-73
2022/12/08 09:58:35;;;;;;;25.83;13.13;;;2.90;99.90;;;;;;5013457;28;20081;-73
2022/12/08 10:01:06;;;;;;;28.63;14.90;;;2.90;99.90;;;;;;4999288;28;20764;-73
2022/12/08 10:03:33;;;;;;;28.95;14.63;;;3.10;99.90;;;;;;5012718;28;20041;-72
2022/12/08 10:06:23;;;;;;;25.40;13.00;;;3.10;99.90;;;;;;5008785;28;21030;-73
2022/12/08 10:09:04;;;;;;;23.83;13.90;;;3.00;99.90;;;;;;4993490;28;20062;-73
2022/12/08 10:11:49;;;;;;;24.70;13.43;;;3.00;99.90;;;;;;5024759;28;20518;-72
2022/12/08 10:14:22;;;;;;;25.75;13.07;;;3.00;99.90;;;;;;5007902;28;20420;-72
2022/12/08 10:16:54;;;;;;;22.88;13.23;;;3.00;99.90;;;;;;5024803;28;20048;-72
2022/12/08 10:19:25;;;;;;;23.50;13.07;;;3.10;99.90;;;;;;5024981;28;20054;-72
2022/12/08 10:21:56;;;;;;;23.23;12.60;;;3.20;99.90;;;;;;5029368;28;20498;-74
2022/12/08 10:24:42;;;;;;;29.33;13.38;;;3.20;99.90;;;;;;5010978;28;20046;-73
2022/12/08 10:27:11;;;;;;;22.75;12.70;;;3.10;99.90;;;;;;5021586;28;20034;-72
2022/12/08 10:29:39;;;;;;;24.95;13.50;;;3.10;99.90;;;;;;5005184;28;20418;-71
2022/12/08 10:32:18;;;;;;;24.00;12.55;;;3.20;99.90;;;;;;4999881;28;20080;-72
2022/12/08 10:35:08;;;;;;;22.70;12.85;;;3.30;99.90;;;;;;4989372;28;20049;-74
2022/12/08 10:37:35;;;;;;;21.73;11.88;;;3.30;99.90;;;;;;5015152;28;20721;-73
2022/12/08 10:40:20;;;;;;;22.58;13.80;;;3.40;99.90;;;;;;5013513;28;20137;-73
2022/12/08 10:42:51;;;;;;;20.02;11.73;;;3.50;99.90;;;;;;5026656;28;20037;-72
2022/12/08 10:45:24;;;;;;;22.85;12.77;;;3.70;99.90;;;;;;5022431;28;20504;-72
2022/12/08 10:48:02;;;;;;;24.63;12.90;;;3.60;99.90;;;;;;5007087;28;20257;-72
2022/12/08 10:50:30;;;;;;;21.05;11.07;;;3.80;99.90;;;;;;5014080;28;20639;-72
2022/12/08 10:53:06;;;;;;;18.35;11.52;;;3.90;99.90;;;;;;5029214;28;20037;-73
2022/12/08 10:55:43;;;;;;;17.83;11.02;;;4.10;99.90;;;;;;5027552;28;20049;-71
2022/12/08 10:58:28;;;;;;;19.25;11.32;;;4.20;99.90;;;;;;5030168;28;20099;-72
2022/12/08 11:01:00;;;;;;;18.48;11.57;;;4.40;99.90;;;;;;4993783;28;20120;-72
2022/12/08 11:03:32;;;;;;;20.33;11.93;;;4.50;99.90;;;;;;5015790;28;20183;-72
2022/12/08 11:06:08;;;;;;;24.63;12.05;;;4.50;99.90;;;;;;5029467;28;20048;-73
2022/12/08 11:08:52;;;;;;;20.15;11.70;;;4.40;99.90;;;;;;5034755;28;20041;-72
2022/12/08 11:11:21;;;;;;;21.13;11.50;;;4.60;99.90;;;;;;4988949;28;20791;-73
2022/12/08 11:13:55;;;;;;;20.60;11.77;;;4.50;99.90;;;;;;5001461;28;20602;-73
2022/12/08 11:16:23;;;;;;;22.58;12.15;;;4.40;99.90;;;;;;5005190;28;20520;-71
2022/12/08 11:18:57;;;;;;;17.50;10.95;;;4.40;99.90;;;;;;5029877;28;20484;-71
2022/12/08 11:21:35;;;;;;;21.42;11.75;;;4.80;99.90;;;;;;5012866;28;20056;-72
2022/12/08 11:24:20;;;;;;;17.92;10.80;;;4.90;99.90;;;;;;5019924;28;20506;-72
2022/12/08 11:26:53;;;;;;;27.35;15.27;;;5.10;99.90;;;;;;5007076;28;20044;-72
2022/12/08 11:29:20;;;;;;;17.60;10.68;;;5.10;99.90;;;;;;5000977;28;20081;-71
2022/12/08 11:32:00;;;;;;;16.55;10.07;;;5.00;99.90;;;;;;5019584;28;20068;-72
2022/12/08 11:34:34;;;;;;;21.60;11.13;;;5.30;99.90;;;;;;5009590;28;20061;-72
2022/12/08 11:37:05;;;;;;;18.55;10.27;;;5.00;99.90;;;;;;5022259;28;20065;-73
2022/12/08 11:39:35;;;;;;;17.73;11.10;;;5.10;99.90;;;;;;5028885;28;20679;-72
2022/12/08 11:42:04;;;;;;;19.58;10.88;;;5.00;99.90;;;;;;5016702;28;20412;-74
2022/12/08 11:44:31;;;;;;;18.48;11.20;;;5.10;99.90;;;;;;5023731;28;20045;-74
2022/12/08 11:47:13;;;;;;;18.80;10.32;;;5.10;99.90;;;;;;5025419;28;20052;-74
2022/12/08 11:49:42;;;;;;;18.25;10.45;;;4.80;99.90;;;;;;5017230;28;20049;-74
2022/12/08 11:52:32;;;;;;;20.35;10.55;;;4.70;99.90;;;;;;4998869;28;20141;-75
2022/12/08 11:55:24;;;;;;;16.85;10.15;;;4.60;99.90;;;;;;5026975;28;20445;-72
2022/12/08 11:57:53;;;;;;;14.88;9.68;;;4.60;99.90;;;;;;5010632;28;20057;-72
2022/12/08 12:00:21;;;;;;;18.02;10.40;;;4.60;99.90;;;;;;5027817;28;20130;-73
2022/12/08 12:02:58;;;;;;;19.73;11.20;;;4.50;99.90;;;;;;5010325;28;20049;-72
2022/12/08 12:05:34;;;;;;;18.80;11.20;;;4.40;99.90;;;;;;5019715;28;20069;-72
2022/12/08 12:08:33;;;;;;;16.58;9.63;;;4.30;99.90;;;;;;5012260;28;20049;-73
2022/12/08 12:14:41;;;;;;;16.30;10.15;;;3.90;99.90;;;;;;5020275;28;20052;-73
2022/12/08 12:17:22;;;;;;;18.85;9.45;;;3.90;99.90;;;;;;5013456;28;20394;-72
2022/12/08 12:19:51;;;;;;;18.15;10.35;;;3.80;99.90;;;;;;5019674;28;20100;-75
2022/12/08 12:22:21;;;;;;;18.98;10.90;;;3.80;99.90;;;;;;5025384;28;20519;-72
2022/12/08 12:24:50;;;;;;;15.05;9.68;;;3.70;99.90;;;;;;5007531;28;20404;-72
2022/12/08 12:27:27;;;;;;;18.63;10.52;;;3.80;99.90;;;;;;5010825;28;20040;-71
2022/12/08 12:29:59;;;;;;;18.08;9.77;;;3.70;99.90;;;;;;5018614;28;20496;-72
2022/12/08 12:32:42;;;;;;;18.88;10.75;;;3.80;99.90;;;;;;5019854;28;20044;-72
2022/12/08 12:35:19;;;;;;;16.15;10.23;;;3.80;99.90;;;;;;5018585;28;20047;-72
2022/12/08 12:38:59;;;;;;;16.65;9.75;;;3.70;99.90;;;;;;5016939;28;20427;-73
2022/12/08 12:41:01;;;;;;;18.17;9.55;;;3.70;99.90;;;;;;5018267;28;20049;-72
2022/12/08 12:43:33;;;;;;;18.20;9.23;;;3.60;99.90;;;;;;5017035;28;20073;-71
2022/12/08 12:46:22;;;;;;;15.82;8.90;;;3.60;99.90;;;;;;5013848;28;20130;-73
2022/12/08 12:48:51;;;;;;;17.35;9.30;;;3.60;99.90;;;;;;5021277;28;20128;-74
2022/12/08 12:51:40;;;;;;;14.10;8.82;;;3.70;99.90;;;;;;5007122;28;20038;-73
2022/12/08 12:54:28;;;;;;;17.25;9.30;;;3.60;99.90;;;;;;5021778;28;20041;-73
2022/12/08 12:57:08;;;;;;;17.27;9.63;;;3.60;99.90;;;;;;4990269;28;20096;-76
2022/12/08 12:59:42;;;;;;;16.83;9.00;;;3.70;99.90;;;;;;5015199;28;20508;-72
2022/12/08 13:02:24;;;;;;;13.93;8.65;;;3.60;99.90;;;;;;5018736;28;20040;-71
2022/12/08 13:05:08;;;;;;;15.07;8.85;;;3.70;99.90;;;;;;5006098;28;20453;-71
2022/12/08 13:07:54;;;;;;;14.98;8.95;;;3.70;99.90;;;;;;5012999;28;20129;-71
2022/12/08 13:10:39;;;;;;;14.57;8.93;;;3.60;99.90;;;;;;5022541;28;20042;-71